CheckWX is a tool to help pilots better visualize weather data.  It is not intended as a substitute for an official pre-flight weather briefing.

03:34:32 UTC

KHZY METAR
Northeast Ohio Regional Airport
Ashtabula, Ohio, USA
Current

42 mins ago

KHZY 220253Z AUTO 00000KT 10SM BKN065 BKN085 21/19 A2996 RMK AO2 SLP138 T02060194 53004
Observed
Jul-22 @ 02:53 UTC
Visibility
10 SM
Flight Rules
VFR
Cloud Levels
  • Broken at 6,500' AGL
  • Broken at 8,500' AGL
Temperature
21°C / 70°F
Dewpoint
19°C / 66°F
Humidity
88%
Altimeter
29.96" Hg
Pressure
1014.52 hPa
Previous

2 hours ago

KHZY 220153Z AUTO 00000KT 10SM CLR 20/19 A2995 RMK AO2 SLP135 T02000189
Observed
Jul-22 @ 01:53 UTC
Visibility
10 SM
Flight Rules
VFR
Cloud Levels
  • Clear skies
Temperature
20°C / 68°F
Dewpoint
19°C / 66°F
Humidity
94%
Altimeter
29.95" Hg
Pressure
1014.22 hPa
Previous

3 hours ago

KHZY 220053Z AUTO 00000KT 10SM CLR 22/18 A2995 RMK AO2 SLP134 T02170178
Observed
Jul-22 @ 00:53 UTC
Visibility
10 SM
Flight Rules
VFR
Cloud Levels
  • Clear skies
Temperature
22°C / 72°F
Dewpoint
18°C / 64°F
Humidity
78%
Altimeter
29.95" Hg
Pressure
1014.22 hPa